createdAt,value
2022-12-11T00:00:05.171Z,16.30
2022-12-11T00:05:26.899Z,17.00
2022-12-11T00:10:49.674Z,17.10
2022-12-11T00:16:11.729Z,16.67
2022-12-11T00:21:34.149Z,17.07
2022-12-11T00:26:56.070Z,17.80
2022-12-11T00:32:17.785Z,18.50
2022-12-11T00:37:39.576Z,18.40
2022-12-11T00:43:01.349Z,19.43
2022-12-11T00:48:23.096Z,18.37
2022-12-11T00:53:44.912Z,19.17
2022-12-11T00:59:06.760Z,18.30
2022-12-11T01:04:28.517Z,18.63
2022-12-11T01:10:08.724Z,18.67
2022-12-11T01:15:48.493Z,18.47
2022-12-11T01:21:13.284Z,18.43
2022-12-11T01:26:35.041Z,18.20
2022-12-11T01:31:56.845Z,15.80
2022-12-11T01:37:18.573Z,16.33
2022-12-11T01:42:40.566Z,16.27
2022-12-11T01:48:14.495Z,16.27
2022-12-11T01:53:43.380Z,17.03
2022-12-11T01:59:07.882Z,19.13
2022-12-11T02:04:30.943Z,20.07
2022-12-11T02:09:52.763Z,18.93
2022-12-11T02:15:26.490Z,19.80
2022-12-11T02:21:03.002Z,20.07
2022-12-11T02:26:58.864Z,17.67
2022-12-11T02:32:26.137Z,15.10
2022-12-11T02:37:51.768Z,13.67
2022-12-11T02:48:41.652Z,12.70
2022-12-11T02:54:06.773Z,13.03
2022-12-11T02:59:41.532Z,11.97
2022-12-11T03:05:03.673Z,12.63
2022-12-11T03:10:25.513Z,12.37
2022-12-11T03:15:59.098Z,12.70
2022-12-11T03:21:32.695Z,13.13
2022-12-11T03:26:57.319Z,13.47
2022-12-11T03:32:25.465Z,13.47
2022-12-11T03:37:49.794Z,13.17
2022-12-11T03:43:11.984Z,12.60
2022-12-11T03:48:38.110Z,14.20
2022-12-11T03:54:00.370Z,13.90
2022-12-11T03:59:22.458Z,14.50
2022-12-11T04:04:44.220Z,14.87
2022-12-11T04:10:06.098Z,15.47
2022-12-11T04:15:27.824Z,14.80
2022-12-11T04:21:08.443Z,14.17
2022-12-11T04:26:30.191Z,12.37
2022-12-11T04:31:51.954Z,12.30
2022-12-11T04:37:13.672Z,12.80
2022-12-11T04:42:35.557Z,12.67
2022-12-11T04:47:57.332Z,12.97
2022-12-11T04:53:19.341Z,12.40
2022-12-11T04:58:42.702Z,13.30
2022-12-11T05:04:04.550Z,11.53
2022-12-11T05:09:27.144Z,12.17
2022-12-11T05:14:52.963Z,11.77
2022-12-11T05:20:15.066Z,13.53
2022-12-11T05:25:36.942Z,11.87
2022-12-11T05:31:00.792Z,11.63
2022-12-11T05:36:32.046Z,12.87
2022-12-11T05:41:53.804Z,12.50
2022-12-11T05:47:15.520Z,12.83
2022-12-11T05:52:37.338Z,11.97
2022-12-11T05:57:59.077Z,12.43
2022-12-11T06:03:20.831Z,11.70
2022-12-11T06:08:42.796Z,12.37
2022-12-11T06:14:04.728Z,19.63
2022-12-11T06:19:26.471Z,13.97
2022-12-11T06:24:48.174Z,14.70
2022-12-11T06:30:10.459Z,15.97
2022-12-11T06:35:34.237Z,15.43
2022-12-11T06:41:02.580Z,16.77
2022-12-11T06:46:24.344Z,17.03
2022-12-11T06:51:46.133Z,16.23
2022-12-11T06:57:09.576Z,17.00
2022-12-11T07:02:31.704Z,17.67
2022-12-11T07:07:54.761Z,16.77
2022-12-11T07:13:16.633Z,15.93
2022-12-11T07:18:40.566Z,15.90
2022-12-11T07:24:02.503Z,15.43
2022-12-11T07:29:24.506Z,15.60
2022-12-11T07:34:51.571Z,15.50
2022-12-11T07:40:14.224Z,14.57
2022-12-11T07:45:35.991Z,16.27
2022-12-11T07:51:17.709Z,15.47
2022-12-11T07:56:43.657Z,14.83
2022-12-11T08:02:06.113Z,14.63
2022-12-11T08:07:27.897Z,14.87
2022-12-11T08:12:49.639Z,15.10
2022-12-11T08:18:11.410Z,15.07
2022-12-11T08:23:33.538Z,15.00
2022-12-11T08:28:56.018Z,14.83
2022-12-11T08:34:17.753Z,14.97
2022-12-11T08:39:39.713Z,15.27
2022-12-11T08:45:01.441Z,13.87
2022-12-11T08:50:23.235Z,14.27
2022-12-11T08:55:45.029Z,14.07
2022-12-11T09:01:13.671Z,15.43
2022-12-11T09:06:35.672Z,15.00
2022-12-11T09:11:57.448Z,15.73
2022-12-11T09:17:19.277Z,16.47
2022-12-11T09:22:42.804Z,15.83
2022-12-11T09:28:04.659Z,15.10
2022-12-11T09:33:26.469Z,15.40
2022-12-11T09:38:48.482Z,14.63
2022-12-11T09:44:28.701Z,15.43
2022-12-11T09:49:56.859Z,16.03
2022-12-11T09:55:24.702Z,15.20
2022-12-11T10:01:01.474Z,17.03
2022-12-11T10:06:35.790Z,17.37
2022-12-11T10:11:57.506Z,18.13
2022-12-11T10:17:23.427Z,18.37
2022-12-11T10:22:45.902Z,18.00
2022-12-11T10:28:16.067Z,18.40
2022-12-11T10:33:40.733Z,18.17
2022-12-11T10:39:04.074Z,18.97
2022-12-11T10:44:31.118Z,18.80
2022-12-11T10:49:52.811Z,19.87
2022-12-11T10:55:22.592Z,18.47
2022-12-11T11:00:45.883Z,18.23
2022-12-11T11:06:17.413Z,18.10
2022-12-11T11:11:39.643Z,17.70
2022-12-11T11:17:01.425Z,17.97
2022-12-11T11:22:23.271Z,17.70
2022-12-11T11:27:57.711Z,17.77
2022-12-11T11:33:22.325Z,18.23
2022-12-11T11:39:03.784Z,17.23
2022-12-11T11:44:32.075Z,18.07
2022-12-11T11:50:08.405Z,18.40
2022-12-11T11:55:53.899Z,17.50
2022-12-11T12:01:19.422Z,17.17
2022-12-11T12:06:57.833Z,17.07
2022-12-11T12:13:01.252Z,17.27
2022-12-11T12:18:23.022Z,16.43
2022-12-11T12:23:59.973Z,16.80
2022-12-11T12:29:40.495Z,16.73
2022-12-11T12:35:17.231Z,18.23
2022-12-11T12:40:55.987Z,18.47
2022-12-11T12:46:20.497Z,20.30
2022-12-11T12:51:44.357Z,21.23
2022-12-11T12:57:06.826Z,21.40
2022-12-11T13:02:29.833Z,19.83
2022-12-11T13:07:55.413Z,18.03
2022-12-11T13:13:32.565Z,19.67
2022-12-11T13:18:54.720Z,18.47
2022-12-11T13:24:26.043Z,18.87
2022-12-11T13:29:47.976Z,18.47
2022-12-11T13:35:16.321Z,18.60
2022-12-11T13:40:44.359Z,20.57
2022-12-11T13:46:11.309Z,21.97
2022-12-11T13:51:36.083Z,21.57
2022-12-11T13:56:57.843Z,20.87
2022-12-11T14:02:25.695Z,20.83
2022-12-11T14:07:57.227Z,20.83
2022-12-11T14:13:23.454Z,21.00
2022-12-11T14:18:45.405Z,20.77
2022-12-11T14:24:12.666Z,21.67
2022-12-11T14:29:34.394Z,22.87
2022-12-11T14:34:57.179Z,21.70
2022-12-11T14:40:22.572Z,22.50
2022-12-11T14:45:48.662Z,22.43
2022-12-11T14:51:14.987Z,22.30
2022-12-11T14:56:37.379Z,22.87
2022-12-11T15:02:02.090Z,22.23
2022-12-11T15:07:24.363Z,21.50
2022-12-11T15:12:46.473Z,19.93
2022-12-11T15:18:20.664Z,19.93
2022-12-11T15:23:54.573Z,21.27
2022-12-11T15:29:30.422Z,22.53
2022-12-11T15:34:56.307Z,22.00
2022-12-11T15:40:18.081Z,21.63
2022-12-11T15:45:39.866Z,23.03
2022-12-11T15:51:01.666Z,23.10
2022-12-11T15:56:23.478Z,23.57
2022-12-11T16:01:45.373Z,23.67
2022-12-11T16:07:16.498Z,21.40
2022-12-11T16:12:38.240Z,24.57
2022-12-11T16:18:06.013Z,26.73
2022-12-11T16:23:29.429Z,27.27
2022-12-11T16:28:51.178Z,28.07
2022-12-11T16:34:12.964Z,29.27
2022-12-11T16:39:36.916Z,28.43
2022-12-11T16:45:06.086Z,29.23
2022-12-11T16:50:27.834Z,29.80
2022-12-11T16:55:49.701Z,29.00
2022-12-11T17:01:12.896Z,30.17
2022-12-11T17:06:34.738Z,33.63
2022-12-11T17:11:56.518Z,31.00
2022-12-11T17:17:18.293Z,31.10
2022-12-11T17:22:40.145Z,27.83
2022-12-11T17:28:01.893Z,28.13
2022-12-11T17:33:24.101Z,30.07
2022-12-11T17:38:48.290Z,28.17
2022-12-11T17:44:10.401Z,27.90
2022-12-11T17:49:32.611Z,28.33
2022-12-11T17:54:54.375Z,28.27
2022-12-11T18:00:16.382Z,27.20
2022-12-11T18:05:46.675Z,29.20
2022-12-11T18:11:12.200Z,27.07
2022-12-11T18:16:36.773Z,26.93
2022-12-11T18:21:58.555Z,26.03
2022-12-11T18:27:20.308Z,28.70
2022-12-11T18:32:43.946Z,26.43
2022-12-11T18:38:05.895Z,27.77
2022-12-11T18:43:27.640Z,26.30
2022-12-11T18:48:50.648Z,26.70
2022-12-11T18:54:12.466Z,26.00
2022-12-11T18:59:34.358Z,25.40
2022-12-11T19:04:56.077Z,26.60
2022-12-11T19:10:17.886Z,26.33
2022-12-11T19:15:41.896Z,27.67
2022-12-11T19:21:09.475Z,26.17
2022-12-11T19:26:31.286Z,27.17
2022-12-11T19:31:55.122Z,26.90
2022-12-11T19:37:16.943Z,28.37
2022-12-11T19:42:38.696Z,29.73
2022-12-11T19:48:00.535Z,30.70
2022-12-11T19:53:22.353Z,29.20
2022-12-11T19:58:44.981Z,30.67
2022-12-11T20:04:10.213Z,29.10
2022-12-11T20:09:33.617Z,28.33
2022-12-11T20:14:55.405Z,30.80
2022-12-11T20:20:17.258Z,28.03
2022-12-11T20:25:40.380Z,28.53
2022-12-11T20:31:16.376Z,27.10
2022-12-11T20:36:41.523Z,26.90
2022-12-11T20:42:04.989Z,26.83
2022-12-11T20:47:26.789Z,25.80
2022-12-11T20:52:48.533Z,27.60
2022-12-11T20:58:11.441Z,27.03
2022-12-11T21:03:40.404Z,26.37
2022-12-11T21:09:07.070Z,29.53
2022-12-11T21:14:30.496Z,28.00
2022-12-11T21:19:52.632Z,28.40
2022-12-11T21:25:14.672Z,27.00
2022-12-11T21:30:40.113Z,28.33
2022-12-11T21:36:02.365Z,26.47
2022-12-11T21:41:25.036Z,25.77
2022-12-11T21:46:46.785Z,26.50
2022-12-11T21:52:09.221Z,27.43
2022-12-11T21:57:31.251Z,25.60
2022-12-11T22:02:53.103Z,27.17
2022-12-11T22:08:15.712Z,26.30
2022-12-11T22:13:37.587Z,27.17
2022-12-11T22:18:59.878Z,26.57
2022-12-11T22:24:21.602Z,28.27
2022-12-11T22:29:43.409Z,27.83
2022-12-11T22:35:05.457Z,26.70
2022-12-11T22:40:27.601Z,26.03
2022-12-11T22:45:49.448Z,25.27
2022-12-11T22:51:11.675Z,24.80
2022-12-11T22:56:33.419Z,24.33
2022-12-11T23:01:55.258Z,25.60
2022-12-11T23:07:16.994Z,24.47
2022-12-11T23:12:38.759Z,24.13
2022-12-11T23:18:00.550Z,24.27
2022-12-11T23:23:22.321Z,23.17
2022-12-11T23:28:45.073Z,23.50
2022-12-11T23:34:06.905Z,23.50
2022-12-11T23:39:28.861Z,23.73
2022-12-11T23:44:50.710Z,21.60
2022-12-11T23:50:12.461Z,21.73
2022-12-11T23:55:34.563Z,22.30
